sensor_id;sensor_type;location;lat;lon;timestamp;pressure;altitude;pressure_sealevel;temperature;humidity
20860;BME280;10590;48.154;11.514;2023-03-23T00:03:51;95228.09;;;10.51;54.21
20860;BME280;10590;48.154;11.514;2023-03-23T00:08:54;95225.66;;;10.37;54.63
20860;BME280;10590;48.154;11.514;2023-03-23T00:14:01;95229.03;;;10.55;54.37
20860;BME280;10590;48.154;11.514;2023-03-23T00:19:05;95227.25;;;10.59;53.86
20860;BME280;10590;48.154;11.514;2023-03-23T00:24:08;95225.91;;;10.53;53.88
20860;BME280;10590;48.154;11.514;2023-03-23T00:29:15;95228.63;;;10.44;54.44
20860;BME280;10590;48.154;11.514;2023-03-23T00:34:19;95227.06;;;10.43;54.25
20860;BME280;10590;48.154;11.514;2023-03-23T00:39:21;95222.53;;;10.35;54.32
20860;BME280;10590;48.154;11.514;2023-03-23T00:44:26;95228.19;;;10.34;54.75
20860;BME280;10590;48.154;11.514;2023-03-23T00:49:29;95225.69;;;10.29;54.74
20860;BME280;10590;48.154;11.514;2023-03-23T00:54:30;95230.44;;;10.14;55.32
20860;BME280;10590;48.154;11.514;2023-03-23T00:59:34;95223.34;;;10.27;55.02
20860;BME280;10590;48.154;11.514;2023-03-23T01:04:37;95218.53;;;10.20;55.18
20860;BME280;10590;48.154;11.514;2023-03-23T01:09:39;95209.88;;;10.24;55.25
20860;BME280;10590;48.154;11.514;2023-03-23T01:14:46;95201.75;;;10.20;55.67
20860;BME280;10590;48.154;11.514;2023-03-23T01:19:48;95208.84;;;10.07;55.60
20860;BME280;10590;48.154;11.514;2023-03-23T01:24:49;95210.03;;;10.18;55.57
20860;BME280;10590;48.154;11.514;2023-03-23T01:29:52;95201.06;;;10.32;55.27
20860;BME280;10590;48.154;11.514;2023-03-23T01:34:54;95197.81;;;10.17;55.97
20860;BME280;10590;48.154;11.514;2023-03-23T01:39:56;95198.13;;;10.25;55.93
20860;BME280;10590;48.154;11.514;2023-03-23T01:45:28;95205.44;;;9.98;56.34
20860;BME280;10590;48.154;11.514;2023-03-23T01:50:34;95210.03;;;9.89;56.93
20860;BME280;10590;48.154;11.514;2023-03-23T01:55:39;95208.94;;;9.90;57.48
20860;BME280;10590;48.154;11.514;2023-03-23T02:00:43;95207.41;;;9.80;57.26
20860;BME280;10590;48.154;11.514;2023-03-23T02:05:45;95204.59;;;9.77;57.43
20860;BME280;10590;48.154;11.514;2023-03-23T02:10:47;95194.78;;;9.60;58.13
20860;BME280;10590;48.154;11.514;2023-03-23T02:15:59;95188.03;;;9.63;58.54
20860;BME280;10590;48.154;11.514;2023-03-23T02:26:45;95167.41;;;9.42;58.90
20860;BME280;10590;48.154;11.514;2023-03-23T02:32:04;95179.75;;;9.55;59.06
20860;BME280;10590;48.154;11.514;2023-03-23T02:37:14;95181.06;;;9.32;60.19
20860;BME280;10590;48.154;11.514;2023-03-23T02:42:22;95181.31;;;9.48;59.66
20860;BME280;10590;48.154;11.514;2023-03-23T02:47:25;95184.00;;;9.56;59.74
20860;BME280;10590;48.154;11.514;2023-03-23T02:52:31;95181.91;;;9.71;59.55
20860;BME280;10590;48.154;11.514;2023-03-23T02:57:34;95179.50;;;9.78;58.38
20860;BME280;10590;48.154;11.514;2023-03-23T03:02:39;95180.97;;;9.67;59.08
20860;BME280;10590;48.154;11.514;2023-03-23T03:07:49;95183.03;;;9.61;59.35
20860;BME280;10590;48.154;11.514;2023-03-23T03:13:01;95180.03;;;9.63;59.36
20860;BME280;10590;48.154;11.514;2023-03-23T03:18:09;95166.25;;;9.61;59.44
20860;BME280;10590;48.154;11.514;2023-03-23T03:23:16;95166.91;;;9.49;59.64
20860;BME280;10590;48.154;11.514;2023-03-23T03:28:19;95161.91;;;9.56;59.34
20860;BME280;10590;48.154;11.514;2023-03-23T03:33:22;95159.84;;;9.62;59.67
20860;BME280;10590;48.154;11.514;2023-03-23T03:38:27;95179.09;;;9.67;59.16
20860;BME280;10590;48.154;11.514;2023-03-23T03:43:29;95184.28;;;9.64;59.44
20860;BME280;10590;48.154;11.514;2023-03-23T03:48:30;95178.00;;;9.68;59.03
20860;BME280;10590;48.154;11.514;2023-03-23T03:53:33;95197.69;;;9.76;59.13
20860;BME280;10590;48.154;11.514;2023-03-23T03:58:35;95190.38;;;9.64;59.26
20860;BME280;10590;48.154;11.514;2023-03-23T04:03:37;95197.06;;;9.79;58.98
20860;BME280;10590;48.154;11.514;2023-03-23T04:08:41;95194.56;;;9.74;58.84
20860;BME280;10590;48.154;11.514;2023-03-23T04:13:43;95195.97;;;9.80;59.58
20860;BME280;10590;48.154;11.514;2023-03-23T04:18:44;95199.66;;;9.96;58.75
20860;BME280;10590;48.154;11.514;2023-03-23T04:23:49;95197.97;;;9.83;59.18
20860;BME280;10590;48.154;11.514;2023-03-23T04:28:51;95204.72;;;9.80;59.19
20860;BME280;10590;48.154;11.514;2023-03-23T04:33:52;95203.81;;;9.76;59.67
20860;BME280;10590;48.154;11.514;2023-03-23T04:38:55;95213.34;;;9.86;59.14
20860;BME280;10590;48.154;11.514;2023-03-23T04:43:57;95217.44;;;9.75;59.88
20860;BME280;10590;48.154;11.514;2023-03-23T04:49:03;95208.34;;;9.76;60.16
20860;BME280;10590;48.154;11.514;2023-03-23T04:54:05;95204.94;;;9.67;60.24
20860;BME280;10590;48.154;11.514;2023-03-23T04:59:07;95219.31;;;9.83;59.54
20860;BME280;10590;48.154;11.514;2023-03-23T05:04:09;95217.75;;;9.82;59.77
20860;BME280;10590;48.154;11.514;2023-03-23T05:09:12;95222.56;;;9.88;60.18
20860;BME280;10590;48.154;11.514;2023-03-23T05:14:13;95218.34;;;9.87;59.95
20860;BME280;10590;48.154;11.514;2023-03-23T05:19:15;95227.13;;;9.88;60.15
20860;BME280;10590;48.154;11.514;2023-03-23T05:24:18;95225.28;;;9.80;60.14
20860;BME280;10590;48.154;11.514;2023-03-23T05:29:19;95240.56;;;10.00;60.08
20860;BME280;10590;48.154;11.514;2023-03-23T05:34:24;95243.88;;;9.88;60.17
20860;BME280;10590;48.154;11.514;2023-03-23T05:39:28;95244.19;;;9.96;60.60
20860;BME280;10590;48.154;11.514;2023-03-23T05:44:30;95216.09;;;9.98;59.82
20860;BME280;10590;48.154;11.514;2023-03-23T05:49:31;95216.75;;;9.40;62.10
20860;BME280;10590;48.154;11.514;2023-03-23T05:54:34;95188.75;;;9.25;62.58
20860;BME280;10590;48.154;11.514;2023-03-23T05:59:36;95175.03;;;9.99;59.78
20860;BME280;10590;48.154;11.514;2023-03-23T06:04:38;95171.78;;;10.23;58.96
20860;BME280;10590;48.154;11.514;2023-03-23T06:09:42;95168.72;;;10.33;58.69
20860;BME280;10590;48.154;11.514;2023-03-23T06:14:44;95179.81;;;10.44;58.45
20860;BME280;10590;48.154;11.514;2023-03-23T06:19:45;95193.56;;;10.55;58.22
20860;BME280;10590;48.154;11.514;2023-03-23T06:24:50;95212.63;;;10.65;58.01
20860;BME280;10590;48.154;11.514;2023-03-23T06:29:51;95211.59;;;10.58;58.55
20860;BME280;10590;48.154;11.514;2023-03-23T06:34:53;95206.91;;;10.75;57.10
20860;BME280;10590;48.154;11.514;2023-03-23T06:39:56;95194.13;;;10.81;57.11
20860;BME280;10590;48.154;11.514;2023-03-23T06:44:57;95182.44;;;10.73;57.25
20860;BME280;10590;48.154;11.514;2023-03-23T06:50:00;95178.72;;;10.87;56.83
20860;BME280;10590;48.154;11.514;2023-03-23T06:55:04;95178.84;;;11.23;55.59
20860;BME280;10590;48.154;11.514;2023-03-23T07:00:08;95167.34;;;11.43;54.80
20860;BME280;10590;48.154;11.514;2023-03-23T07:05:12;95171.97;;;11.79;53.85
20860;BME280;10590;48.154;11.514;2023-03-23T07:10:16;95167.53;;;11.96;52.94
20860;BME280;10590;48.154;11.514;2023-03-23T07:15:17;95181.13;;;12.27;52.91
20860;BME280;10590;48.154;11.514;2023-03-23T07:20:19;95193.06;;;13.22;51.04
20860;BME280;10590;48.154;11.514;2023-03-23T07:25:22;95198.56;;;13.42;50.22
20860;BME280;10590;48.154;11.514;2023-03-23T07:30:24;95182.44;;;13.85;48.21
20860;BME280;10590;48.154;11.514;2023-03-23T07:35:26;95173.72;;;15.09;45.15
20860;BME280;10590;48.154;11.514;2023-03-23T07:40:29;95159.44;;;14.86;44.79
20860;BME280;10590;48.154;11.514;2023-03-23T07:45:33;95176.63;;;14.46;46.14
20860;BME280;10590;48.154;11.514;2023-03-23T07:50:36;95171.41;;;16.41;41.82
20860;BME280;10590;48.154;11.514;2023-03-23T07:55:39;95175.63;;;15.09;44.11
20860;BME280;10590;48.154;11.514;2023-03-23T08:00:40;95164.41;;;14.33;45.87
20860;BME280;10590;48.154;11.514;2023-03-23T08:05:42;95173.56;;;14.48;45.31
20860;BME280;10590;48.154;11.514;2023-03-23T08:10:45;95168.28;;;14.51;44.93
20860;BME280;10590;48.154;11.514;2023-03-23T08:15:46;95171.41;;;14.73;44.92
20860;BME280;10590;48.154;11.514;2023-03-23T08:20:48;95175.88;;;14.65;45.03
20860;BME280;10590;48.154;11.514;2023-03-23T08:25:52;95175.34;;;14.24;45.88
20860;BME280;10590;48.154;11.514;2023-03-23T08:30:54;95183.00;;;14.57;45.50
20860;BME280;10590;48.154;11.514;2023-03-23T08:35:56;95183.63;;;14.86;44.80
20860;BME280;10590;48.154;11.514;2023-03-23T08:41:00;95186.88;;;14.95;44.62
20860;BME280;10590;48.154;11.514;2023-03-23T08:46:02;95199.28;;;15.42;43.35
20860;BME280;10590;48.154;11.514;2023-03-23T08:51:09;95204.66;;;15.80;42.12
20860;BME280;10590;48.154;11.514;2023-03-23T08:56:12;95215.59;;;15.68;42.15
20860;BME280;10590;48.154;11.514;2023-03-23T09:01:14;95219.06;;;16.64;40.45
20860;BME280;10590;48.154;11.514;2023-03-23T09:06:16;95218.63;;;17.14;39.67
20860;BME280;10590;48.154;11.514;2023-03-23T09:11:19;95229.91;;;17.57;38.60
20860;BME280;10590;48.154;11.514;2023-03-23T09:16:21;95239.88;;;17.87;38.46
20860;BME280;10590;48.154;11.514;2023-03-23T09:21:22;95237.31;;;18.01;38.74
20860;BME280;10590;48.154;11.514;2023-03-23T09:26:26;95244.22;;;18.35;37.35
20860;BME280;10590;48.154;11.514;2023-03-23T09:31:28;95255.19;;;17.42;38.53
20860;BME280;10590;48.154;11.514;2023-03-23T09:36:31;95258.03;;;17.26;38.58
20860;BME280;10590;48.154;11.514;2023-03-23T09:41:57;95257.25;;;16.96;39.91
20860;BME280;10590;48.154;11.514;2023-03-23T09:47:04;95249.25;;;17.33;39.10
20860;BME280;10590;48.154;11.514;2023-03-23T09:52:11;95247.34;;;18.41;37.06
20860;BME280;10590;48.154;11.514;2023-03-23T09:57:20;95254.34;;;18.05;38.87
20860;BME280;10590;48.154;11.514;2023-03-23T10:02:28;95249.25;;;18.88;36.85
20860;BME280;10590;48.154;11.514;2023-03-23T10:07:30;95249.25;;;18.88;37.25
20860;BME280;10590;48.154;11.514;2023-03-23T10:12:36;95264.22;;;17.57;38.67
20860;BME280;10590;48.154;11.514;2023-03-23T10:17:45;95253.44;;;16.97;40.77
20860;BME280;10590;48.154;11.514;2023-03-23T10:22:51;95254.56;;;16.96;39.03
20860;BME280;10590;48.154;11.514;2023-03-23T10:27:59;95266.66;;;17.35;37.83
20860;BME280;10590;48.154;11.514;2023-03-23T10:33:05;95265.19;;;17.41;37.34
20860;BME280;10590;48.154;11.514;2023-03-23T10:38:13;95255.72;;;17.25;36.89
20860;BME280;10590;48.154;11.514;2023-03-23T10:43:18;95254.41;;;17.41;36.69
20860;BME280;10590;48.154;11.514;2023-03-23T10:48:25;95261.22;;;17.65;36.72
20860;BME280;10590;48.154;11.514;2023-03-23T10:53:31;95251.44;;;17.83;36.72
20860;BME280;10590;48.154;11.514;2023-03-23T10:58:35;95259.47;;;17.46;36.81
20860;BME280;10590;48.154;11.514;2023-03-23T11:03:40;95251.34;;;17.76;36.42
20860;BME280;10590;48.154;11.514;2023-03-23T11:08:48;95262.63;;;17.52;37.37
20860;BME280;10590;48.154;11.514;2023-03-23T11:13:59;95257.56;;;17.80;36.90
20860;BME280;10590;48.154;11.514;2023-03-23T11:19:12;95259.03;;;17.74;37.72
20860;BME280;10590;48.154;11.514;2023-03-23T11:24:15;95251.91;;;17.59;37.19
20860;BME280;10590;48.154;11.514;2023-03-23T11:29:19;95238.50;;;18.03;36.90
20860;BME280;10590;48.154;11.514;2023-03-23T11:34:24;95240.09;;;18.52;36.08
20860;BME280;10590;48.154;11.514;2023-03-23T11:39:28;95240.72;;;18.83;36.11
20860;BME280;10590;48.154;11.514;2023-03-23T11:44:35;95241.50;;;18.87;35.29
20860;BME280;10590;48.154;11.514;2023-03-23T11:49:47;95236.34;;;18.64;35.38
20860;BME280;10590;48.154;11.514;2023-03-23T11:54:57;95235.75;;;18.40;35.75
20860;BME280;10590;48.154;11.514;2023-03-23T12:00:14;95229.72;;;18.58;35.55
20860;BME280;10590;48.154;11.514;2023-03-23T12:05:32;95224.03;;;18.70;35.50
20860;BME280;10590;48.154;11.514;2023-03-23T12:10:41;95230.06;;;19.07;34.77
20860;BME280;10590;48.154;11.514;2023-03-23T12:15:53;95214.13;;;19.86;33.19
20860;BME280;10590;48.154;11.514;2023-03-23T12:21:05;95211.78;;;19.81;32.13
20860;BME280;10590;48.154;11.514;2023-03-23T12:26:17;95207.91;;;19.71;33.13
20860;BME280;10590;48.154;11.514;2023-03-23T12:31:26;95209.72;;;19.42;33.48
20860;BME280;10590;48.154;11.514;2023-03-23T12:36:41;95219.47;;;18.81;33.99
20860;BME280;10590;48.154;11.514;2023-03-23T12:41:49;95210.38;;;18.52;33.75
20860;BME280;10590;48.154;11.514;2023-03-23T12:47:23;95208.81;;;18.51;34.31
20860;BME280;10590;48.154;11.514;2023-03-23T12:52:32;95199.53;;;18.49;33.95
20860;BME280;10590;48.154;11.514;2023-03-23T12:57:39;95200.44;;;18.63;33.91
20860;BME280;10590;48.154;11.514;2023-03-23T13:02:51;95194.81;;;18.35;33.89
20860;BME280;10590;48.154;11.514;2023-03-23T13:07:58;95184.19;;;18.12;33.98
20860;BME280;10590;48.154;11.514;2023-03-23T13:13:00;95188.31;;;17.99;33.44
20860;BME280;10590;48.154;11.514;2023-03-23T13:18:09;95184.66;;;17.77;34.26
20860;BME280;10590;48.154;11.514;2023-03-23T13:23:15;95184.16;;;18.08;34.25
20860;BME280;10590;48.154;11.514;2023-03-23T13:28:21;95187.19;;;18.48;34.12
20860;BME280;10590;48.154;11.514;2023-03-23T13:33:29;95189.88;;;19.09;33.29
20860;BME280;10590;48.154;11.514;2023-03-23T13:38:31;95187.66;;;19.33;34.94
20860;BME280;10590;48.154;11.514;2023-03-23T13:43:34;95188.22;;;18.91;36.34
20860;BME280;10590;48.154;11.514;2023-03-23T13:48:43;95188.72;;;18.45;36.50
20860;BME280;10590;48.154;11.514;2023-03-23T13:53:46;95182.94;;;17.99;38.20
20860;BME280;10590;48.154;11.514;2023-03-23T13:58:50;95178.72;;;18.05;38.48
20860;BME280;10590;48.154;11.514;2023-03-23T14:03:59;95191.94;;;18.65;37.08
20860;BME280;10590;48.154;11.514;2023-03-23T14:09:05;95181.91;;;18.62;37.20
20860;BME280;10590;48.154;11.514;2023-03-23T14:14:14;95184.47;;;18.00;38.28
20860;BME280;10590;48.154;11.514;2023-03-23T14:19:23;95177.09;;;17.93;37.99
20860;BME280;10590;48.154;11.514;2023-03-23T14:24:26;95173.72;;;18.03;37.08
20860;BME280;10590;48.154;11.514;2023-03-23T14:29:32;95176.28;;;17.52;37.92
20860;BME280;10590;48.154;11.514;2023-03-23T14:34:35;95175.97;;;17.24;38.51
20860;BME280;10590;48.154;11.514;2023-03-23T14:39:36;95177.00;;;17.45;38.30
20860;BME280;10590;48.154;11.514;2023-03-23T14:44:41;95168.53;;;17.47;38.14
20860;BME280;10590;48.154;11.514;2023-03-23T14:49:45;95177.88;;;17.23;39.87
20860;BME280;10590;48.154;11.514;2023-03-23T14:54:47;95177.78;;;17.46;39.37
20860;BME280;10590;48.154;11.514;2023-03-23T14:59:49;95181.88;;;17.03;40.48
20860;BME280;10590;48.154;11.514;2023-03-23T15:04:56;95183.34;;;16.97;40.92
20860;BME280;10590;48.154;11.514;2023-03-23T15:09:58;95182.47;;;16.89;40.74
20860;BME280;10590;48.154;11.514;2023-03-23T15:15:02;95183.31;;;16.93;41.08
20860;BME280;10590;48.154;11.514;2023-03-23T15:20:11;95187.69;;;16.75;41.97
20860;BME280;10590;48.154;11.514;2023-03-23T15:25:21;95196.91;;;16.74;42.86
20860;BME280;10590;48.154;11.514;2023-03-23T15:30:34;95198.00;;;16.69;43.42
20860;BME280;10590;48.154;11.514;2023-03-23T15:35:40;95196.59;;;16.79;42.74
20860;BME280;10590;48.154;11.514;2023-03-23T15:40:43;95198.59;;;16.59;43.56
20860;BME280;10590;48.154;11.514;2023-03-23T15:45:53;95205.81;;;16.51;43.85
20860;BME280;10590;48.154;11.514;2023-03-23T15:50:57;95193.34;;;16.43;43.72
20860;BME280;10590;48.154;11.514;2023-03-23T15:56:01;95205.09;;;16.54;44.39
20860;BME280;10590;48.154;11.514;2023-03-23T16:01:07;95201.94;;;16.49;43.93
20860;BME280;10590;48.154;11.514;2023-03-23T16:06:14;95197.44;;;16.34;44.69
20860;BME280;10590;48.154;11.514;2023-03-23T16:11:17;95202.84;;;16.11;45.16
20860;BME280;10590;48.154;11.514;2023-03-23T16:16:21;95198.56;;;16.06;45.03
20860;BME280;10590;48.154;11.514;2023-03-23T16:21:25;95199.47;;;15.91;45.19
20860;BME280;10590;48.154;11.514;2023-03-23T16:26:26;95188.03;;;15.75;46.76
20860;BME280;10590;48.154;11.514;2023-03-23T16:31:28;95197.75;;;15.41;49.36
20860;BME280;10590;48.154;11.514;2023-03-23T16:36:31;95202.22;;;15.14;50.99
20860;BME280;10590;48.154;11.514;2023-03-23T16:41:33;95206.88;;;14.97;52.11
20860;BME280;10590;48.154;11.514;2023-03-23T16:46:35;95211.88;;;14.80;53.11
20860;BME280;10590;48.154;11.514;2023-03-23T16:51:38;95209.81;;;14.73;52.82
20860;BME280;10590;48.154;11.514;2023-03-23T16:56:39;95209.63;;;14.82;51.97
20860;BME280;10590;48.154;11.514;2023-03-23T17:01:45;95200.94;;;14.88;52.69
20860;BME280;10590;48.154;11.514;2023-03-23T17:06:48;95208.66;;;15.09;52.73
20860;BME280;10590;48.154;11.514;2023-03-23T17:11:52;95206.25;;;15.04;53.14
20860;BME280;10590;48.154;11.514;2023-03-23T17:16:54;95212.25;;;14.97;52.05
20860;BME280;10590;48.154;11.514;2023-03-23T17:21:57;95203.56;;;15.04;53.23
20860;BME280;10590;48.154;11.514;2023-03-23T17:26:58;95204.41;;;14.89;53.24
20860;BME280;10590;48.154;11.514;2023-03-23T17:32:00;95207.22;;;14.77;52.77
20860;BME280;10590;48.154;11.514;2023-03-23T17:37:03;95210.63;;;14.58;53.69
20860;BME280;10590;48.154;11.514;2023-03-23T17:42:05;95213.22;;;14.54;52.87
20860;BME280;10590;48.154;11.514;2023-03-23T17:47:07;95221.81;;;14.44;52.95
20860;BME280;10590;48.154;11.514;2023-03-23T17:52:10;95222.50;;;14.41;51.99
20860;BME280;10590;48.154;11.514;2023-03-23T17:57:11;95213.56;;;14.37;51.76
20860;BME280;10590;48.154;11.514;2023-03-23T18:02:13;95214.53;;;14.45;51.38
20860;BME280;10590;48.154;11.514;2023-03-23T18:07:16;95232.22;;;14.46;51.76
20860;BME280;10590;48.154;11.514;2023-03-23T18:12:22;95229.69;;;14.37;51.93
20860;BME280;10590;48.154;11.514;2023-03-23T18:17:24;95233.00;;;14.46;52.05
20860;BME280;10590;48.154;11.514;2023-03-23T18:22:27;95234.34;;;14.56;51.97
20860;BME280;10590;48.154;11.514;2023-03-23T18:27:29;95239.22;;;14.50;52.42
20860;BME280;10590;48.154;11.514;2023-03-23T18:32:34;95236.44;;;14.47;53.31
20860;BME280;10590;48.154;11.514;2023-03-23T18:37:38;95241.81;;;14.31;52.78
20860;BME280;10590;48.154;11.514;2023-03-23T18:42:41;95239.63;;;14.37;52.46
20860;BME280;10590;48.154;11.514;2023-03-23T18:47:44;95245.44;;;14.23;52.84
20860;BME280;10590;48.154;11.514;2023-03-23T18:52:47;95248.75;;;14.32;52.92
20860;BME280;10590;48.154;11.514;2023-03-23T18:57:48;95248.31;;;14.30;53.34
20860;BME280;10590;48.154;11.514;2023-03-23T19:02:50;95250.56;;;14.44;53.08
20860;BME280;10590;48.154;11.514;2023-03-23T19:07:53;95252.13;;;14.29;53.52
20860;BME280;10590;48.154;11.514;2023-03-23T19:12:55;95253.16;;;14.24;53.62
20860;BME280;10590;48.154;11.514;2023-03-23T19:17:57;95252.63;;;14.19;53.53
20860;BME280;10590;48.154;11.514;2023-03-23T19:23:00;95258.72;;;14.47;52.86
20860;BME280;10590;48.154;11.514;2023-03-23T19:28:01;95253.06;;;14.21;53.56
20860;BME280;10590;48.154;11.514;2023-03-23T19:33:03;95260.16;;;14.29;53.14
20860;BME280;10590;48.154;11.514;2023-03-23T19:38:06;95249.88;;;14.15;53.79
20860;BME280;10590;48.154;11.514;2023-03-23T19:43:08;95253.50;;;14.23;53.79
20860;BME280;10590;48.154;11.514;2023-03-23T19:48:10;95259.66;;;14.08;54.17
20860;BME280;10590;48.154;11.514;2023-03-23T19:53:13;95259.81;;;14.15;53.78
20860;BME280;10590;48.154;11.514;2023-03-23T19:58:15;95253.16;;;14.09;54.04
20860;BME280;10590;48.154;11.514;2023-03-23T20:03:16;95259.47;;;14.00;54.00
20860;BME280;10590;48.154;11.514;2023-03-23T20:08:19;95256.09;;;13.88;54.86
20860;BME280;10590;48.154;11.514;2023-03-23T20:13:21;95250.56;;;13.96;54.51
20860;BME280;10590;48.154;11.514;2023-03-23T20:18:22;95253.34;;;14.16;54.42
20860;BME280;10590;48.154;11.514;2023-03-23T20:23:26;95256.44;;;14.02;54.25
20860;BME280;10590;48.154;11.514;2023-03-23T20:28:27;95252.63;;;13.87;55.12
20860;BME280;10590;48.154;11.514;2023-03-23T20:33:29;95254.22;;;13.76;55.23
20860;BME280;10590;48.154;11.514;2023-03-23T20:38:33;95253.09;;;13.77;55.51
20860;BME280;10590;48.154;11.514;2023-03-23T20:43:37;95251.63;;;13.64;55.32
20860;BME280;10590;48.154;11.514;2023-03-23T20:48:41;95260.50;;;13.52;55.76
20860;BME280;10590;48.154;11.514;2023-03-23T20:53:44;95254.09;;;13.57;55.67
20860;BME280;10590;48.154;11.514;2023-03-23T20:58:47;95241.13;;;13.59;56.16
20860;BME280;10590;48.154;11.514;2023-03-23T21:03:49;95234.44;;;13.37;56.35
20860;BME280;10590;48.154;11.514;2023-03-23T21:08:54;95249.19;;;13.59;56.17
20860;BME280;10590;48.154;11.514;2023-03-23T21:13:56;95235.47;;;13.32;56.97
20860;BME280;10590;48.154;11.514;2023-03-23T21:18:58;95241.00;;;13.39;56.85
20860;BME280;10590;48.154;11.514;2023-03-23T21:24:01;95227.16;;;13.37;57.26
20860;BME280;10590;48.154;11.514;2023-03-23T21:29:03;95234.81;;;13.23;57.51
20860;BME280;10590;48.154;11.514;2023-03-23T21:34:09;95234.19;;;13.02;58.92
20860;BME280;10590;48.154;11.514;2023-03-23T21:39:14;95227.09;;;12.82;59.86
20860;BME280;10590;48.154;11.514;2023-03-23T21:44:16;95226.84;;;12.87;60.02
20860;BME280;10590;48.154;11.514;2023-03-23T21:49:18;95218.56;;;13.04;60.37
20860;BME280;10590;48.154;11.514;2023-03-23T21:54:21;95214.47;;;12.82;62.42
20860;BME280;10590;48.154;11.514;2023-03-23T21:59:23;95213.97;;;12.64;63.07
20860;BME280;10590;48.154;11.514;2023-03-23T22:04:24;95203.44;;;12.84;61.00
20860;BME280;10590;48.154;11.514;2023-03-23T22:09:28;95196.38;;;12.91;61.69
20860;BME280;10590;48.154;11.514;2023-03-23T22:14:30;95186.94;;;12.82;62.09
20860;BME280;10590;48.154;11.514;2023-03-23T22:19:32;95177.19;;;12.89;61.15
20860;BME280;10590;48.154;11.514;2023-03-23T22:24:35;95169.34;;;12.96;60.87
20860;BME280;10590;48.154;11.514;2023-03-23T22:29:36;95159.56;;;12.88;60.10
20860;BME280;10590;48.154;11.514;2023-03-23T22:34:38;95161.41;;;13.00;59.80
20860;BME280;10590;48.154;11.514;2023-03-23T22:39:41;95147.31;;;12.87;60.78
20860;BME280;10590;48.154;11.514;2023-03-23T22:44:43;95131.66;;;12.61;62.18
20860;BME280;10590;48.154;11.514;2023-03-23T22:49:45;95140.59;;;12.93;61.65
20860;BME280;10590;48.154;11.514;2023-03-23T22:54:48;95130.66;;;12.94;60.43
20860;BME280;10590;48.154;11.514;2023-03-23T22:59:50;95133.28;;;12.78;60.96
20860;BME280;10590;48.154;11.514;2023-03-23T23:04:52;95117.06;;;12.87;60.35
20860;BME280;10590;48.154;11.514;2023-03-23T23:09:55;95129.88;;;12.93;60.07
20860;BME280;10590;48.154;11.514;2023-03-23T23:14:57;95109.22;;;12.94;59.67
20860;BME280;10590;48.154;11.514;2023-03-23T23:19:59;95109.53;;;12.76;59.58
20860;BME280;10590;48.154;11.514;2023-03-23T23:25:06;95106.09;;;12.92;60.06
20860;BME280;10590;48.154;11.514;2023-03-23T23:30:10;95092.28;;;12.90;59.62
20860;BME280;10590;48.154;11.514;2023-03-23T23:35:12;95089.44;;;12.55;60.13
20860;BME280;10590;48.154;11.514;2023-03-23T23:40:16;95083.22;;;12.38;60.14
20860;BME280;10590;48.154;11.514;2023-03-23T23:45:18;95096.91;;;12.49;60.13
20860;BME280;10590;48.154;11.514;2023-03-23T23:50:20;95091.13;;;12.47;59.92
20860;BME280;10590;48.154;11.514;2023-03-23T23:55:24;95084.59;;;12.60;59.46
